Time;durP1;ratioP1;P1;durP2;ratioP2;P2;SDS_P1;SDS_P2;PMS_P1;PMS_P2;Temp;Humidity;BMP_temperature;BMP_pressure;BME280_temperature;BME280_humidity;BME280_pressure;Samples;Min_cycle;Max_cycle;Signal;HPM_P1;HPM_P2
2022/09/26 00:00:44;;;;;;;3.05;2.28;;;12.50;99.90;;;;;;2093638;28;20113;-71
2022/09/26 00:01:44;;;;;;;4.90;2.88;;;12.40;99.90;;;;;;2092748;28;20124;-70
2022/09/26 00:02:45;;;;;;;4.65;2.20;;;12.50;99.90;;;;;;2092039;28;20019;-70
2022/09/26 00:03:48;;;;;;;5.97;1.95;;;12.40;99.90;;;;;;2092899;28;20093;-70
2022/09/26 00:04:49;;;;;;;4.30;2.47;;;12.50;99.90;;;;;;2093912;28;20021;-70
2022/09/26 00:05:49;;;;;;;3.78;2.63;;;12.40;99.90;;;;;;2092868;28;20028;-70
2022/09/26 00:06:55;;;;;;;3.00;2.15;;;12.50;99.90;;;;;;2095816;28;20020;-70
2022/09/26 00:07:56;;;;;;;2.65;2.35;;;12.40;99.90;;;;;;2092958;28;20040;-70
2022/09/26 00:08:57;;;;;;;4.45;2.35;;;12.40;99.90;;;;;;2093521;28;20028;-70
2022/09/26 00:09:57;;;;;;;4.20;2.40;;;12.50;99.90;;;;;;2094990;28;20028;-70
2022/09/26 00:11:02;;;;;;;7.20;2.75;;;12.50;99.90;;;;;;2094163;28;20021;-70
2022/09/26 00:12:03;;;;;;;5.47;2.88;;;12.40;99.90;;;;;;2091949;28;20021;-70
2022/09/26 00:13:03;;;;;;;2.75;2.17;;;12.40;99.90;;;;;;2091561;28;20040;-70
2022/09/26 00:14:07;;;;;;;3.33;2.15;;;12.40;99.90;;;;;;2094559;28;20029;-70
2022/09/26 00:15:09;;;;;;;6.90;2.53;;;12.40;99.90;;;;;;2094213;28;20059;-70
2022/09/26 00:16:11;;;;;;;4.50;2.80;;;12.40;99.90;;;;;;2094785;28;20025;-71
2022/09/26 00:17:11;;;;;;;3.55;2.33;;;12.40;99.90;;;;;;2091635;28;20025;-70
2022/09/26 00:18:12;;;;;;;5.82;3.00;;;12.40;99.90;;;;;;2094624;28;20056;-70
2022/09/26 00:19:13;;;;;;;4.65;2.20;;;12.40;99.90;;;;;;2095265;28;20025;-70
2022/09/26 00:20:13;;;;;;;5.63;3.22;;;12.40;99.90;;;;;;2092096;28;20029;-70
2022/09/26 00:21:14;;;;;;;4.85;2.40;;;12.50;99.90;;;;;;2094458;28;20035;-70
2022/09/26 00:22:15;;;;;;;4.43;2.40;;;12.40;99.90;;;;;;2094064;28;20017;-70
2022/09/26 00:23:16;;;;;;;4.32;2.40;;;12.50;99.90;;;;;;2093268;28;20113;-70
2022/09/26 00:24:17;;;;;;;4.72;2.60;;;12.40;99.90;;;;;;2092471;28;20061;-70
2022/09/26 00:25:18;;;;;;;3.30;2.35;;;12.50;99.90;;;;;;2092046;28;20020;-70
2022/09/26 00:26:21;;;;;;;5.63;2.50;;;12.40;99.90;;;;;;2092526;28;20058;-70
2022/09/26 00:27:21;;;;;;;4.25;2.17;;;12.50;99.90;;;;;;2092739;28;20063;-70
2022/09/26 00:28:22;;;;;;;5.57;2.13;;;12.50;99.90;;;;;;2092908;28;20032;-70
2022/09/26 00:29:22;;;;;;;5.65;2.40;;;12.50;99.90;;;;;;2093351;28;20271;-70
2022/09/26 00:30:23;;;;;;;3.50;2.08;;;12.50;99.90;;;;;;2092741;28;20488;-70
2022/09/26 00:31:27;;;;;;;2.85;2.10;;;12.50;99.90;;;;;;2093707;28;20025;-70
2022/09/26 00:32:28;;;;;;;5.78;2.67;;;12.50;99.90;;;;;;2093190;28;20468;-70
2022/09/26 00:33:29;;;;;;;5.43;2.72;;;12.50;99.90;;;;;;2092815;28;20514;-70
2022/09/26 00:34:29;;;;;;;5.88;2.30;;;12.50;99.90;;;;;;2093372;28;20029;-70
2022/09/26 00:35:30;;;;;;;4.22;2.20;;;12.50;99.90;;;;;;2093170;28;20537;-70
2022/09/26 00:36:31;;;;;;;4.82;2.47;;;12.50;99.90;;;;;;2093846;28;20031;-70
2022/09/26 00:37:31;;;;;;;4.50;2.67;;;12.50;99.90;;;;;;2092662;28;20044;-70
2022/09/26 00:38:33;;;;;;;3.63;2.63;;;12.50;99.90;;;;;;2092962;28;20035;-70
2022/09/26 00:39:33;;;;;;;5.85;2.78;;;12.50;99.90;;;;;;2092473;28;20032;-70
2022/09/26 00:40:34;;;;;;;5.28;2.60;;;12.50;99.90;;;;;;2093853;28;20096;-70
2022/09/26 00:41:36;;;;;;;4.70;2.38;;;12.50;99.90;;;;;;2093357;28;20039;-70
2022/09/26 00:42:36;;;;;;;3.60;2.53;;;12.50;99.90;;;;;;2092018;28;20102;-70
2022/09/26 00:43:41;;;;;;;6.78;3.28;;;12.50;99.90;;;;;;2093857;28;20033;-70
2022/09/26 00:44:48;;;;;;;5.07;2.60;;;12.50;99.90;;;;;;2090547;28;20025;-70
2022/09/26 00:45:49;;;;;;;6.95;3.25;;;12.50;99.90;;;;;;2091299;28;20048;-70
2022/09/26 00:46:50;;;;;;;4.28;2.80;;;12.50;99.90;;;;;;2092882;28;20052;-70
2022/09/26 00:48:00;;;;;;;4.20;2.78;;;12.50;99.90;;;;;;2091864;28;20484;-70
2022/09/26 00:49:24;;;;;;;6.93;2.90;;;12.50;99.90;;;;;;2094894;28;20621;-70
2022/09/26 00:50:30;;;;;;;6.47;3.25;;;12.50;99.90;;;;;;2094353;28;20033;-70
2022/09/26 00:51:33;;;;;;;4.10;2.70;;;12.50;99.90;;;;;;2093341;28;20427;-70
2022/09/26 00:52:48;;;;;;;8.95;3.50;;;12.50;99.90;;;;;;2092376;28;20559;-70
2022/09/26 00:53:51;;;;;;;3.60;2.78;;;12.50;99.90;;;;;;2092311;28;20573;-70
2022/09/26 00:54:54;;;;;;;3.35;2.58;;;12.50;99.90;;;;;;2092825;28;20029;-70
2022/09/26 00:56:01;;;;;;;3.38;2.42;;;12.50;99.90;;;;;;2100469;28;20511;-70
2022/09/26 00:57:06;;;;;;;5.63;2.53;;;12.50;99.90;;;;;;2099069;28;20055;-70
2022/09/26 00:58:23;;;;;;;5.03;2.42;;;12.50;99.90;;;;;;2093253;28;20025;-70
2022/09/26 00:59:49;;;;;;;3.83;2.33;;;12.50;99.90;;;;;;2093593;28;20557;-70
2022/09/26 01:00:50;;;;;;;2.63;2.17;;;12.50;99.90;;;;;;2091418;28;20016;-70
2022/09/26 01:01:53;;;;;;;6.40;2.80;;;12.50;99.90;;;;;;2091175;28;20079;-71
2022/09/26 01:02:54;;;;;;;5.50;2.80;;;12.50;99.90;;;;;;2093310;28;20112;-70
2022/09/26 01:03:56;;;;;;;6.90;2.95;;;12.50;99.90;;;;;;2092312;28;20028;-70
2022/09/26 01:04:58;;;;;;;4.25;2.65;;;12.50;99.90;;;;;;2094040;28;20573;-70
2022/09/26 01:06:00;;;;;;;4.40;2.60;;;12.50;99.90;;;;;;2092370;28;20439;-70
2022/09/26 01:07:04;;;;;;;8.95;3.35;;;12.60;99.90;;;;;;2095382;28;20487;-70
2022/09/26 01:08:06;;;;;;;4.93;3.05;;;12.60;99.90;;;;;;2093079;28;20054;-70
2022/09/26 01:09:07;;;;;;;5.43;3.17;;;12.60;99.90;;;;;;2093305;28;20038;-70
2022/09/26 01:10:09;;;;;;;5.55;3.10;;;12.60;99.90;;;;;;2094596;28;20158;-70
2022/09/26 01:11:14;;;;;;;3.72;3.00;;;12.60;99.90;;;;;;2091325;28;20045;-70
2022/09/26 01:12:16;;;;;;;6.25;2.53;;;12.60;99.90;;;;;;2093504;28;20029;-70
2022/09/26 01:13:16;;;;;;;5.97;3.25;;;12.60;99.90;;;;;;2092344;28;20735;-71
2022/09/26 01:14:17;;;;;;;9.10;3.22;;;12.60;99.90;;;;;;2092949;28;20051;-71
2022/09/26 01:15:17;;;;;;;5.00;3.10;;;12.60;99.90;;;;;;2092409;28;20029;-70
2022/09/26 01:16:18;;;;;;;4.85;3.20;;;12.60;99.90;;;;;;2093110;28;20037;-70
2022/09/26 01:17:21;;;;;;;5.43;3.13;;;12.60;99.90;;;;;;2093959;28;20103;-70
2022/09/26 01:18:22;;;;;;;7.05;3.47;;;12.60;99.90;;;;;;2092118;28;20032;-70
2022/09/26 01:19:40;;;;;;;4.85;3.40;;;12.60;99.90;;;;;;2094435;28;20476;-70
2022/09/26 01:20:49;;;;;;;5.70;2.75;;;12.60;99.90;;;;;;2093463;28;20021;-70
2022/09/26 01:22:17;;;;;;;5.53;3.00;;;12.60;99.90;;;;;;2092041;28;20025;-70
2022/09/26 01:23:49;;;;;;;6.70;3.00;;;12.60;99.90;;;;;;2092743;28;20494;-70
2022/09/26 01:25:05;;;;;;;6.05;2.95;;;12.60;99.90;;;;;;2091330;28;20021;-70
2022/09/26 01:26:26;;;;;;;4.05;2.42;;;12.60;99.90;;;;;;2094541;28;20028;-70
2022/09/26 01:27:45;;;;;;;6.05;3.20;;;12.60;99.90;;;;;;2095665;28;20102;-71
2022/09/26 01:29:00;;;;;;;5.93;3.10;;;12.60;99.90;;;;;;2092625;28;20146;-70
2022/09/26 01:30:18;;;;;;;4.00;3.15;;;12.60;99.90;;;;;;2092734;28;20099;-70
2022/09/26 01:31:18;;;;;;;3.67;2.90;;;12.60;99.90;;;;;;2093132;28;20709;-70
2022/09/26 01:32:49;;;;;;;5.00;2.97;;;12.60;99.90;;;;;;2091759;28;20395;-70
2022/09/26 01:34:06;;;;;;;4.05;2.53;;;12.60;99.90;;;;;;2092116;28;20027;-70
2022/09/26 01:35:16;;;;;;;6.03;3.22;;;12.60;99.90;;;;;;2092768;28;20150;-70
2022/09/26 01:36:40;;;;;;;3.80;2.70;;;12.60;99.90;;;;;;2091544;28;20563;-70
2022/09/26 01:38:17;;;;;;;9.48;3.13;;;12.60;99.90;;;;;;2093273;28;20035;-70
2022/09/26 01:39:53;;;;;;;5.95;2.80;;;12.60;99.90;;;;;;2093803;28;20037;-70
2022/09/26 01:41:02;;;;;;;4.97;3.03;;;12.60;99.90;;;;;;2093522;28;20029;-70
2022/09/26 01:42:21;;;;;;;6.75;2.85;;;12.60;99.90;;;;;;2092389;28;20051;-70
2022/09/26 01:43:30;;;;;;;5.20;2.97;;;12.60;99.90;;;;;;2091642;28;20043;-70
2022/09/26 01:44:39;;;;;;;4.75;3.13;;;12.60;99.90;;;;;;2092293;28;20653;-70
2022/09/26 01:45:59;;;;;;;6.75;3.03;;;12.60;99.90;;;;;;2091770;28;20028;-70
2022/09/26 01:47:05;;;;;;;7.28;3.17;;;12.60;99.90;;;;;;2092944;28;20044;-70
2022/09/26 01:48:17;;;;;;;5.80;3.38;;;12.60;99.90;;;;;;2091003;28;20026;-70
2022/09/26 01:49:43;;;;;;;5.20;3.40;;;12.60;99.90;;;;;;2094026;28;20052;-70
2022/09/26 01:50:54;;;;;;;6.78;3.10;;;12.60;99.90;;;;;;2094081;28;20029;-71
2022/09/26 01:51:57;;;;;;;6.10;3.30;;;12.60;99.90;;;;;;2093151;28;20582;-70
2022/09/26 01:53:15;;;;;;;5.70;3.22;;;12.60;99.90;;;;;;2093328;28;20082;-70
2022/09/26 01:54:24;;;;;;;4.22;2.95;;;12.60;99.90;;;;;;2093019;28;20028;-70
2022/09/26 01:55:58;;;;;;;5.82;3.33;;;12.60;99.90;;;;;;2091338;28;20805;-70
2022/09/26 01:57:03;;;;;;;6.93;3.95;;;12.60;99.90;;;;;;2087514;28;20029;-70
2022/09/26 01:58:15;;;;;;;5.65;3.50;;;12.60;99.90;;;;;;2092440;28;20021;-71
2022/09/26 01:59:30;;;;;;;4.93;3.10;;;12.60;99.90;;;;;;2092540;28;20745;-70
2022/09/26 02:00:34;;;;;;;5.30;3.45;;;12.60;99.90;;;;;;2091834;28;20017;-71
2022/09/26 02:01:39;;;;;;;5.82;3.25;;;12.60;99.90;;;;;;2092005;28;20016;-71
2022/09/26 02:02:44;;;;;;;4.18;3.17;;;12.60;99.90;;;;;;2094044;28;20040;-71
2022/09/26 02:03:50;;;;;;;5.20;3.30;;;12.70;99.90;;;;;;2091567;28;20032;-71
2022/09/26 02:04:56;;;;;;;6.35;3.78;;;12.70;99.90;;;;;;2091903;28;20035;-71
2022/09/26 02:06:02;;;;;;;8.38;3.75;;;12.70;99.90;;;;;;2093235;28;20108;-70
2022/09/26 02:07:10;;;;;;;8.60;3.83;;;12.70;99.90;;;;;;2092905;28;20481;-70
2022/09/26 02:08:39;;;;;;;5.82;3.80;;;12.70;99.90;;;;;;2091713;28;20032;-70
2022/09/26 02:09:47;;;;;;;5.30;3.70;;;12.80;99.90;;;;;;2092620;28;20021;-70
2022/09/26 02:10:51;;;;;;;6.50;4.28;;;12.70;99.90;;;;;;2092592;28;20377;-70
2022/09/26 02:11:54;;;;;;;6.15;3.28;;;12.80;99.90;;;;;;2092836;28;20103;-70
2022/09/26 02:13:03;;;;;;;6.63;3.55;;;12.80;99.90;;;;;;2092636;28;20071;-70
2022/09/26 02:14:17;;;;;;;6.82;3.63;;;12.80;99.90;;;;;;2092190;28;20025;-70
2022/09/26 02:15:20;;;;;;;9.02;4.05;;;12.80;99.90;;;;;;2093505;28;20029;-70
2022/09/26 02:16:30;;;;;;;5.78;4.00;;;12.80;99.90;;;;;;2094475;28;20035;-70
2022/09/26 02:17:40;;;;;;;4.57;3.65;;;12.80;99.90;;;;;;2093526;28;20024;-70
2022/09/26 02:18:49;;;;;;;6.45;3.63;;;12.80;99.90;;;;;;2091794;28;20020;-70
2022/09/26 02:20:09;;;;;;;5.53;3.80;;;12.80;99.90;;;;;;2092905;28;20499;-70
2022/09/26 02:21:21;;;;;;;6.18;3.78;;;12.80;99.90;;;;;;2093125;28;20029;-70
2022/09/26 02:22:24;;;;;;;5.05;3.78;;;12.80;99.90;;;;;;2091924;28;20035;-71
2022/09/26 02:23:24;;;;;;;9.70;3.60;;;12.80;99.90;;;;;;2092709;28;20052;-70
2022/09/26 02:24:26;;;;;;;8.50;3.85;;;12.80;99.90;;;;;;2092146;28;20025;-70
2022/09/26 02:25:27;;;;;;;5.82;3.47;;;12.90;99.90;;;;;;2092191;28;20116;-70
2022/09/26 02:26:28;;;;;;;7.85;4.05;;;12.90;99.90;;;;;;2094084;28;20038;-70
2022/09/26 02:27:29;;;;;;;6.57;3.83;;;12.90;99.90;;;;;;2092128;28;20063;-70
2022/09/26 02:28:30;;;;;;;7.05;4.20;;;12.90;99.90;;;;;;2092592;28;20021;-70
2022/09/26 02:29:31;;;;;;;9.18;4.60;;;12.90;99.90;;;;;;2093110;28;20107;-70
2022/09/26 02:30:32;;;;;;;7.75;4.68;;;12.90;99.90;;;;;;2089913;28;20027;-71
2022/09/26 02:31:38;;;;;;;7.85;4.40;;;12.90;99.90;;;;;;2090297;28;20040;-71
2022/09/26 02:32:39;;;;;;;4.57;4.10;;;12.90;99.90;;;;;;2091810;28;20021;-70
2022/09/26 02:33:40;;;;;;;10.25;4.40;;;12.90;99.90;;;;;;2093029;28;20021;-70
2022/09/26 02:34:41;;;;;;;8.27;4.10;;;13.00;99.90;;;;;;2090961;28;20024;-70
2022/09/26 02:35:54;;;;;;;6.22;4.15;;;13.00;99.90;;;;;;2093755;28;20127;-70
2022/09/26 02:36:56;;;;;;;6.07;4.90;;;12.90;99.90;;;;;;2094186;28;20028;-70
2022/09/26 02:37:58;;;;;;;9.25;5.03;;;13.00;99.90;;;;;;2094338;28;20117;-70
2022/09/26 02:38:59;;;;;;;7.43;4.97;;;12.90;99.90;;;;;;2095395;28;20017;-70
2022/09/26 02:40:00;;;;;;;7.57;4.82;;;13.00;99.90;;;;;;2095719;28;20043;-70
2022/09/26 02:41:16;;;;;;;8.77;5.07;;;13.00;99.90;;;;;;2094651;28;20036;-70
2022/09/26 02:42:25;;;;;;;8.10;5.32;;;13.00;99.90;;;;;;2095244;28;20085;-70
2022/09/26 02:43:42;;;;;;;5.88;4.82;;;13.00;99.90;;;;;;2094790;28;20523;-70
2022/09/26 02:45:08;;;;;;;9.77;5.07;;;13.00;99.90;;;;;;2095088;28;20109;-70
2022/09/26 02:46:26;;;;;;;5.97;5.25;;;13.00;99.90;;;;;;2096334;28;20036;-70
2022/09/26 02:47:58;;;;;;;7.75;5.28;;;13.00;99.90;;;;;;2096228;28;20027;-70
2022/09/26 02:49:15;;;;;;;7.60;5.47;;;13.00;99.90;;;;;;2093036;28;20033;-70
2022/09/26 02:50:33;;;;;;;14.77;5.35;;;13.00;99.90;;;;;;2094262;28;20028;-71
2022/09/26 02:52:07;;;;;;;9.95;5.80;;;13.00;99.90;;;;;;2097147;28;20017;-71
2022/09/26 02:53:24;;;;;;;7.95;5.78;;;13.00;99.90;;;;;;2095381;28;20032;-71
2022/09/26 02:54:38;;;;;;;9.60;5.95;;;13.00;99.90;;;;;;2094422;28;20025;-70
2022/09/26 02:56:05;;;;;;;10.73;5.97;;;13.00;99.90;;;;;;2095495;28;20475;-70
2022/09/26 02:57:30;;;;;;;5.75;4.93;;;13.00;99.90;;;;;;2093186;28;20130;-70
2022/09/26 02:58:53;;;;;;;7.55;5.60;;;13.00;99.90;;;;;;2095371;28;20013;-70
2022/09/26 03:00:06;;;;;;;7.75;6.18;;;13.00;99.90;;;;;;2095762;28;20048;-70
2022/09/26 03:01:08;;;;;;;9.07;6.32;;;13.00;99.90;;;;;;2095067;28;20589;-70
2022/09/26 03:02:17;;;;;;;11.98;6.45;;;13.00;99.90;;;;;;2094756;28;20040;-70
2022/09/26 03:03:32;;;;;;;8.98;6.22;;;13.10;99.90;;;;;;2093331;28;20794;-70
2022/09/26 03:04:57;;;;;;;9.27;6.15;;;13.10;99.90;;;;;;2096085;28;20052;-71
2022/09/26 03:05:59;;;;;;;7.10;5.97;;;13.10;99.90;;;;;;2094315;28;20036;-71
2022/09/26 03:07:05;;;;;;;9.05;6.53;;;13.10;99.90;;;;;;2093988;28;20086;-71
2022/09/26 03:08:12;;;;;;;10.20;6.70;;;13.10;99.90;;;;;;2094013;28;20677;-71
2022/09/26 03:09:15;;;;;;;8.43;6.40;;;13.10;99.90;;;;;;2097527;28;20144;-71
2022/09/26 03:10:16;;;;;;;12.95;7.10;;;13.10;99.90;;;;;;2093760;28;20090;-71
2022/09/26 03:11:20;;;;;;;8.27;6.43;;;13.10;99.90;;;;;;2096009;28;20028;-71
2022/09/26 03:12:23;;;;;;;8.60;6.65;;;13.10;99.90;;;;;;2095117;28;20032;-71
2022/09/26 03:13:26;;;;;;;7.72;6.72;;;13.10;99.90;;;;;;2095869;28;20039;-71
2022/09/26 03:14:30;;;;;;;8.50;6.80;;;13.10;99.90;;;;;;2095657;28;20036;-71
2022/09/26 03:15:33;;;;;;;10.95;7.30;;;13.20;99.90;;;;;;2095403;28;20025;-71
2022/09/26 03:16:37;;;;;;;8.93;6.80;;;13.10;99.90;;;;;;2092869;28;20484;-71
2022/09/26 03:17:45;;;;;;;9.27;7.13;;;13.10;99.90;;;;;;2094230;28;20102;-71
2022/09/26 03:18:57;;;;;;;8.57;6.50;;;13.10;99.90;;;;;;2094448;28;20013;-71
2022/09/26 03:20:04;;;;;;;8.20;6.90;;;13.20;99.90;;;;;;2096018;28;20024;-71
2022/09/26 03:21:05;;;;;;;9.82;7.18;;;13.10;99.90;;;;;;2094637;28;20401;-71
2022/09/26 03:22:07;;;;;;;10.98;7.03;;;13.10;99.90;;;;;;2094413;28;20021;-71
2022/09/26 03:23:08;;;;;;;10.32;6.80;;;13.10;99.90;;;;;;2094579;28;20088;-71
2022/09/26 03:24:09;;;;;;;9.95;6.63;;;13.10;99.90;;;;;;2095983;28;20024;-71
2022/09/26 03:25:15;;;;;;;10.07;7.28;;;13.20;99.90;;;;;;2094209;28;20125;-71
2022/09/26 03:26:18;;;;;;;10.98;6.25;;;13.20;99.90;;;;;;2093740;28;20027;-70
2022/09/26 03:27:19;;;;;;;9.10;7.03;;;13.20;99.90;;;;;;2096821;28;20087;-70
2022/09/26 03:28:20;;;;;;;7.95;6.30;;;13.20;99.90;;;;;;2094398;28;20025;-70
2022/09/26 03:29:20;;;;;;;9.40;6.63;;;13.20;99.90;;;;;;2093321;28;20074;-70
2022/09/26 03:30:22;;;;;;;9.85;6.22;;;13.20;99.90;;;;;;2095197;28;20547;-70
2022/09/26 03:31:24;;;;;;;10.63;6.43;;;13.20;99.90;;;;;;2096140;28;20039;-70
2022/09/26 03:32:24;;;;;;;9.02;6.53;;;13.30;99.90;;;;;;2095497;28;20566;-70
2022/09/26 03:33:25;;;;;;;8.05;6.45;;;13.30;99.90;;;;;;2094800;28;20419;-70
2022/09/26 03:34:26;;;;;;;11.85;6.43;;;13.30;99.90;;;;;;2094620;28;20040;-70
2022/09/26 03:35:26;;;;;;;7.03;6.00;;;13.30;99.90;;;;;;2094785;28;20025;-70
2022/09/26 03:36:27;;;;;;;6.47;5.82;;;13.30;99.90;;;;;;2094239;28;20052;-70
2022/09/26 03:37:28;;;;;;;10.27;6.28;;;13.30;99.90;;;;;;2094570;28;20676;-70
2022/09/26 03:38:29;;;;;;;8.10;6.00;;;13.30;99.90;;;;;;2096107;28;20043;-70
2022/09/26 03:39:29;;;;;;;7.03;5.90;;;13.30;99.90;;;;;;2095912;28;20078;-70
2022/09/26 03:40:30;;;;;;;9.15;6.43;;;13.30;99.90;;;;;;2096023;28;20021;-70
2022/09/26 03:41:30;;;;;;;11.18;6.15;;;13.30;99.90;;;;;;2095216;28;20012;-70
2022/09/26 03:42:33;;;;;;;5.88;5.35;;;13.30;99.90;;;;;;2094504;28;20032;-70
2022/09/26 03:43:35;;;;;;;8.98;6.13;;;13.30;99.90;;;;;;2095244;28;20024;-70
2022/09/26 03:44:36;;;;;;;6.55;5.53;;;13.30;99.90;;;;;;2096147;28;20155;-70
2022/09/26 03:45:36;;;;;;;8.85;5.85;;;13.30;99.90;;;;;;2093665;28;20170;-70
2022/09/26 03:46:37;;;;;;;8.57;5.95;;;13.30;99.90;;;;;;2094972;28;20048;-71
2022/09/26 03:47:38;;;;;;;10.02;6.70;;;13.30;99.90;;;;;;2094228;28;20519;-70
2022/09/26 03:48:39;;;;;;;9.90;5.93;;;13.30;99.90;;;;;;2092405;28;20033;-70
2022/09/26 03:49:39;;;;;;;9.05;6.13;;;13.30;99.90;;;;;;2094145;28;20052;-70
2022/09/26 03:50:40;;;;;;;8.43;5.60;;;13.30;99.90;;;;;;2093538;28;20450;-70
2022/09/26 03:51:41;;;;;;;9.82;6.45;;;13.30;99.90;;;;;;2093470;28;20025;-70
2022/09/26 03:52:42;;;;;;;7.53;6.38;;;13.30;99.90;;;;;;2093585;28;20020;-70
2022/09/26 03:53:45;;;;;;;6.65;5.40;;;13.30;99.90;;;;;;2093631;28;20024;-70
2022/09/26 03:54:46;;;;;;;7.38;5.55;;;13.30;99.90;;;;;;2094590;28;20021;-70
2022/09/26 03:55:47;;;;;;;8.98;5.97;;;13.30;99.90;;;;;;2094746;28;20142;-70
2022/09/26 03:56:48;;;;;;;7.80;6.03;;;13.30;99.90;;;;;;2093635;28;20597;-71
2022/09/26 03:57:48;;;;;;;9.57;6.55;;;13.30;99.90;;;;;;2093944;28;20094;-71
2022/09/26 03:58:49;;;;;;;8.93;5.80;;;13.30;99.90;;;;;;2092907;28;20032;-71
2022/09/26 03:59:49;;;;;;;9.48;6.43;;;13.30;99.90;;;;;;2093130;28;20471;-71
2022/09/26 04:00:50;;;;;;;10.57;6.85;;;13.30;99.90;;;;;;2093174;28;20477;-70
2022/09/26 04:01:51;;;;;;;8.73;6.78;;;13.30;99.90;;;;;;2102213;28;21001;-70
2022/09/26 04:02:51;;;;;;;8.20;6.25;;;13.30;99.90;;;;;;2103355;28;20027;-70
2022/09/26 04:03:52;;;;;;;7.57;6.10;;;13.30;99.90;;;;;;2092441;28;20158;-70
2022/09/26 04:04:52;;;;;;;9.90;6.30;;;13.30;99.90;;;;;;2093578;28;20058;-70
2022/09/26 04:05:53;;;;;;;8.88;6.43;;;13.30;99.90;;;;;;2093306;28;20119;-70
2022/09/26 04:06:53;;;;;;;9.63;6.70;;;13.30;99.90;;;;;;2092342;28;20138;-71
2022/09/26 04:07:54;;;;;;;8.73;6.55;;;13.30;99.90;;;;;;2093559;28;20427;-70
2022/09/26 04:08:55;;;;;;;8.48;6.28;;;13.30;99.90;;;;;;2093160;28;20087;-70
2022/09/26 04:09:55;;;;;;;8.07;6.25;;;13.40;99.90;;;;;;2093756;28;20618;-70
2022/09/26 04:11:01;;;;;;;10.32;6.18;;;13.30;99.90;;;;;;2093232;28;20669;-70
2022/09/26 04:12:02;;;;;;;7.68;6.80;;;13.30;99.90;;;;;;2092682;28;20150;-70
2022/09/26 04:13:03;;;;;;;9.93;7.40;;;13.30;99.90;;;;;;2093268;28;20126;-70
2022/09/26 04:14:03;;;;;;;9.48;7.93;;;13.40;99.90;;;;;;2093283;28;20103;-70
2022/09/26 04:15:07;;;;;;;11.05;7.47;;;13.30;99.90;;;;;;2092536;28;20021;-71
2022/09/26 04:16:08;;;;;;;10.82;7.45;;;13.30;99.90;;;;;;2094260;28;20024;-70
2022/09/26 04:17:09;;;;;;;9.20;7.32;;;13.30;99.90;;;;;;2092868;28;20106;-70
2022/09/26 04:18:10;;;;;;;12.30;7.10;;;13.30;99.90;;;;;;2093580;28;20025;-70
2022/09/26 04:19:11;;;;;;;11.10;7.70;;;13.30;99.90;;;;;;2102654;28;20028;-70
2022/09/26 04:20:11;;;;;;;9.10;7.35;;;13.30;99.90;;;;;;2100934;28;20055;-70
2022/09/26 04:21:15;;;;;;;9.88;7.05;;;13.30;99.90;;;;;;2092735;28;20099;-70
2022/09/26 04:22:16;;;;;;;9.43;6.80;;;13.30;99.90;;;;;;2093164;28;20147;-70
2022/09/26 04:23:17;;;;;;;8.75;7.30;;;13.30;99.90;;;;;;2094756;28;20025;-70
2022/09/26 04:24:18;;;;;;;10.75;6.88;;;13.30;99.90;;;;;;2091676;28;20055;-70
2022/09/26 04:25:19;;;;;;;10.00;7.03;;;13.30;99.90;;;;;;2101463;28;20024;-70
2022/09/26 04:26:20;;;;;;;8.52;6.55;;;13.30;99.90;;;;;;2096757;28;20021;-70
2022/09/26 04:27:21;;;;;;;8.50;6.82;;;13.30;99.90;;;;;;2096804;28;20025;-70
2022/09/26 04:28:22;;;;;;;9.73;7.47;;;13.30;99.90;;;;;;2092471;28;20107;-70
2022/09/26 04:29:23;;;;;;;8.82;7.63;;;13.30;99.90;;;;;;2093480;28;20029;-70
2022/09/26 04:30:23;;;;;;;10.27;7.05;;;13.30;99.90;;;;;;2093918;28;20024;-70
2022/09/26 04:31:28;;;;;;;7.90;6.75;;;13.30;99.90;;;;;;2093444;28;20037;-70
2022/09/26 04:32:29;;;;;;;9.38;7.55;;;13.30;99.90;;;;;;2092263;28;20025;-70
2022/09/26 04:33:31;;;;;;;9.20;7.10;;;13.30;99.90;;;;;;2093289;28;20056;-71
2022/09/26 04:34:31;;;;;;;10.48;7.35;;;13.30;99.90;;;;;;2094517;28;20024;-70
2022/09/26 04:35:32;;;;;;;8.13;7.15;;;13.30;99.90;;;;;;2094227;28;20028;-70
2022/09/26 04:36:32;;;;;;;8.30;7.40;;;13.30;99.90;;;;;;2092310;28;20047;-70
2022/09/26 04:37:35;;;;;;;8.43;7.10;;;13.30;99.90;;;;;;2093282;28;20035;-70
2022/09/26 04:38:36;;;;;;;11.80;7.28;;;13.30;99.90;;;;;;2093746;28;20056;-70
2022/09/26 04:39:37;;;;;;;11.98;7.85;;;13.30;99.90;;;;;;2093827;28;20138;-70
2022/09/26 04:40:37;;;;;;;12.13;7.07;;;13.20;99.90;;;;;;2092687;28;20365;-70
2022/09/26 04:41:38;;;;;;;8.57;7.10;;;13.30;99.90;;;;;;2092747;28;20025;-70
2022/09/26 04:42:40;;;;;;;8.52;7.22;;;13.30;99.90;;;;;;2092176;28;20571;-70
2022/09/26 04:43:40;;;;;;;7.70;6.85;;;13.30;99.90;;;;;;2092708;28;20043;-70
2022/09/26 04:44:42;;;;;;;8.82;6.95;;;13.30;99.90;;;;;;2092432;28;20099;-70
2022/09/26 04:45:42;;;;;;;9.18;7.00;;;13.30;99.90;;;;;;2092347;28;20108;-70
2022/09/26 04:46:43;;;;;;;8.85;7.13;;;13.30;99.90;;;;;;2092286;28;20480;-70
2022/09/26 04:47:43;;;;;;;9.98;8.10;;;13.30;99.90;;;;;;2092356;28;20039;-70
2022/09/26 04:48:44;;;;;;;10.48;7.43;;;13.30;99.90;;;;;;2093149;28;20029;-70
2022/09/26 04:49:45;;;;;;;9.02;7.80;;;13.30;99.90;;;;;;2094254;28;20556;-70
2022/09/26 04:50:46;;;;;;;10.57;6.90;;;13.30;99.90;;;;;;2090625;28;20028;-70
2022/09/26 04:51:47;;;;;;;11.27;7.75;;;13.30;99.90;;;;;;2092896;28;20060;-70
2022/09/26 04:52:47;;;;;;;10.88;7.28;;;13.30;99.90;;;;;;2093713;28;20021;-71
2022/09/26 04:53:49;;;;;;;12.05;7.45;;;13.30;99.90;;;;;;2096058;28;20021;-70
2022/09/26 04:54:49;;;;;;;9.73;7.00;;;13.30;99.90;;;;;;2095320;28;20036;-70
2022/09/26 04:55:53;;;;;;;11.35;8.23;;;13.30;99.90;;;;;;2092515;28;20059;-70
2022/09/26 04:56:53;;;;;;;10.15;7.32;;;13.30;99.90;;;;;;2092370;28;20028;-70
2022/09/26 04:57:54;;;;;;;8.60;6.85;;;13.30;99.90;;;;;;2093923;28;20702;-70
2022/09/26 04:58:56;;;;;;;10.80;7.35;;;13.20;99.90;;;;;;2091886;28;20103;-70
2022/09/26 04:59:56;;;;;;;8.38;7.30;;;13.20;99.90;;;;;;2091199;28;20488;-70
2022/09/26 05:01:02;;;;;;;9.75;7.18;;;13.20;99.90;;;;;;2092215;28;20408;-70
2022/09/26 05:02:06;;;;;;;7.47;6.65;;;13.20;99.90;;;;;;2091512;28;20017;-70
2022/09/26 05:03:08;;;;;;;10.52;7.40;;;13.20;99.90;;;;;;2093400;28;20541;-70
2022/09/26 05:04:09;;;;;;;9.30;7.55;;;13.20;99.90;;;;;;2092851;28;20040;-70
2022/09/26 05:05:10;;;;;;;8.60;6.60;;;13.20;99.90;;;;;;2092806;28;20036;-70
2022/09/26 05:06:13;;;;;;;11.75;6.95;;;13.20;99.90;;;;;;2093288;28;20064;-70
2022/09/26 05:07:15;;;;;;;11.80;6.82;;;13.20;99.90;;;;;;2093673;28;20031;-70
2022/09/26 05:08:16;;;;;;;7.95;7.15;;;13.20;99.90;;;;;;2091159;28;20035;-70
2022/09/26 05:09:16;;;;;;;8.55;7.32;;;13.20;99.90;;;;;;2091919;28;20871;-70
2022/09/26 05:10:17;;;;;;;10.27;7.35;;;13.20;99.90;;;;;;2092481;28;20029;-70
2022/09/26 05:11:18;;;;;;;10.50;7.30;;;13.20;99.90;;;;;;2093817;28;20032;-70
2022/09/26 05:12:19;;;;;;;8.00;6.90;;;13.20;99.90;;;;;;2092735;28;20568;-70
2022/09/26 05:13:21;;;;;;;7.65;6.55;;;13.10;99.90;;;;;;2094741;28;20728;-70
2022/09/26 05:14:21;;;;;;;12.55;7.10;;;13.10;99.90;;;;;;2092648;28;20439;-70
2022/09/26 05:15:22;;;;;;;10.63;8.05;;;13.20;99.90;;;;;;2093365;28;20021;-70
2022/09/26 05:16:22;;;;;;;8.90;6.53;;;13.10;99.90;;;;;;2092335;28;20025;-70
2022/09/26 05:17:23;;;;;;;8.77;6.75;;;13.20;99.90;;;;;;2093725;28;20680;-70
2022/09/26 05:18:25;;;;;;;11.05;7.00;;;13.10;99.90;;;;;;2092964;28;20063;-70
2022/09/26 05:19:25;;;;;;;8.85;7.50;;;13.10;99.90;;;;;;2092975;28;20506;-70
2022/09/26 05:20:28;;;;;;;11.60;7.10;;;13.20;99.90;;;;;;2092547;28;20388;-70
2022/09/26 05:21:28;;;;;;;8.55;6.32;;;13.20;99.90;;;;;;2093464;28;20228;-70
2022/09/26 05:22:30;;;;;;;9.52;6.82;;;13.20;99.90;;;;;;2092593;28;20020;-70
2022/09/26 05:26:22;;;;;;;9.30;6.88;;;13.20;99.90;;;;;;2090079;28;20028;-70
2022/09/26 05:27:23;;;;;;;7.15;6.40;;;13.10;99.90;;;;;;2092222;28;20025;-70
2022/09/26 05:28:24;;;;;;;7.07;6.20;;;13.20;99.90;;;;;;2092005;28;20070;-70
2022/09/26 05:29:25;;;;;;;10.68;7.00;;;13.20;99.90;;;;;;2093856;28;20028;-70
2022/09/26 05:30:30;;;;;;;9.25;6.38;;;13.20;99.90;;;;;;2091491;28;20024;-70
2022/09/26 05:31:35;;;;;;;8.60;6.55;;;13.20;99.90;;;;;;2090512;28;20109;-70
2022/09/26 05:32:36;;;;;;;9.80;5.93;;;13.10;99.90;;;;;;2091596;28;20519;-70
2022/09/26 05:33:37;;;;;;;9.77;7.07;;;13.20;99.90;;;;;;2099746;28;20795;-70
2022/09/26 05:34:37;;;;;;;9.40;7.03;;;13.20;99.90;;;;;;2098145;28;20739;-70
2022/09/26 05:35:39;;;;;;;9.35;6.28;;;13.20;99.90;;;;;;2090802;28;20044;-70
2022/09/26 05:36:41;;;;;;;8.32;6.63;;;13.20;99.90;;;;;;2090418;28;20024;-70
2022/09/26 05:37:42;;;;;;;8.32;6.30;;;13.20;99.90;;;;;;2093020;28;20111;-70
2022/09/26 05:38:43;;;;;;;10.25;6.65;;;13.20;99.90;;;;;;2091878;28;20028;-70
2022/09/26 05:41:03;;;;;;;9.88;6.65;;;13.20;99.90;;;;;;2092349;28;20496;-70
2022/09/26 05:42:07;;;;;;;8.77;6.38;;;13.20;99.90;;;;;;2091973;28;20446;-70